Time;durP1;ratioP1;P1;durP2;ratioP2;P2;SDS_P1;SDS_P2;PMS_P1;PMS_P2;Temp;Humidity;BMP_temperature;BMP_pressure;BME280_temperature;BME280_humidity;BME280_pressure;Samples;Min_cycle;Max_cycle;Signal;HPM_P1;HPM_P2
2023/07/14 00:02:02;;;;;;;2.17;0.95;;;23.10;99.30;;;;;;6246749;22;20015;-83
2023/07/14 00:04:34;;;;;;;2.83;1.50;;;23.10;99.80;;;;;;6245892;22;20050;-83
2023/07/14 00:07:12;;;;;;;2.30;1.10;;;23.10;99.90;;;;;;6272063;22;20016;-82
2023/07/14 00:09:42;;;;;;;2.30;1.45;;;23.00;99.30;;;;;;6246539;22;20026;-83
2023/07/14 00:12:10;;;;;;;3.60;1.10;;;23.10;99.20;;;;;;6271435;22;20012;-82
2023/07/14 00:14:38;;;;;;;1.80;1.20;;;23.10;99.50;;;;;;6272046;22;20054;-83
2023/07/14 00:17:12;;;;;;;2.55;1.30;;;23.10;99.70;;;;;;6246795;22;20020;-83
2023/07/14 00:19:40;;;;;;;3.00;1.40;;;23.00;99.90;;;;;;6271402;22;20031;-83
2023/07/14 00:22:17;;;;;;;3.00;1.33;;;23.00;99.90;;;;;;6247261;22;20019;-82
2023/07/14 00:24:44;;;;;;;2.67;1.10;;;22.90;99.90;;;;;;6272706;22;20102;-83
2023/07/14 00:27:20;;;;;;;2.25;1.05;;;23.00;99.90;;;;;;6248180;22;20016;-82
2023/07/14 00:29:49;;;;;;;2.42;1.65;;;23.00;99.90;;;;;;6274443;22;20015;-83
2023/07/14 00:32:19;;;;;;;3.25;1.33;;;22.90;99.80;;;;;;6273687;22;20110;-82
2023/07/14 00:34:47;;;;;;;3.10;1.80;;;22.90;99.90;;;;;;6248343;22;20023;-82
2023/07/14 00:37:15;;;;;;;2.08;1.17;;;22.90;99.40;;;;;;6274752;22;20023;-83
2023/07/14 00:39:43;;;;;;;3.92;1.83;;;22.90;99.50;;;;;;6277831;22;20386;-83
2023/07/14 00:42:16;;;;;;;3.00;1.45;;;22.90;99.80;;;;;;6280944;22;20350;-83
2023/07/14 00:44:45;;;;;;;2.35;1.50;;;22.80;99.70;;;;;;6279478;22;20402;-82
2023/07/14 00:47:26;;;;;;;3.20;1.45;;;22.00;99.40;;;;;;6216713;23;20039;-83
2023/07/14 00:50:02;;;;;;;3.13;1.48;;;22.80;99.70;;;;;;6171678;23;20079;-83
2023/07/14 00:59:03;;;;;;;2.92;1.83;;;22.90;99.90;;;;;;6251000;22;20474;-82
2023/07/14 01:01:32;;;;;;;2.28;1.10;;;22.80;99.90;;;;;;6283479;22;20023;-83
2023/07/14 01:04:00;;;;;;;2.33;1.40;;;22.80;99.60;;;;;;6254157;22;20675;-83
2023/07/14 01:06:41;;;;;;;2.58;1.38;;;22.80;99.40;;;;;;6277385;22;20026;-83
2023/07/14 01:09:13;;;;;;;1.73;1.25;;;22.80;99.70;;;;;;6284676;22;20114;-83
2023/07/14 01:11:49;;;;;;;2.20;1.15;;;22.90;99.90;;;;;;6284719;22;20443;-83
2023/07/14 01:14:21;;;;;;;2.85;1.30;;;22.80;99.90;;;;;;6280471;22;20019;-82
2023/07/14 01:16:53;;;;;;;4.55;1.67;;;22.80;99.90;;;;;;6255341;22;20027;-82
2023/07/14 01:32:21;;;;;;;3.20;1.45;;;22.70;99.80;;;;;;6228621;22;20525;-82
2023/07/14 01:34:52;;;;;;;2.58;1.55;;;22.70;99.90;;;;;;6287078;22;20466;-82
2023/07/14 01:40:53;;;;;;;3.58;1.50;;;22.60;99.90;;;;;;6211103;22;20034;-82
2023/07/14 01:43:22;;;;;;;4.10;1.52;;;22.60;99.90;;;;;;6242400;22;20026;-83
2023/07/14 01:45:57;;;;;;;3.65;1.50;;;22.50;99.90;;;;;;6269837;22;20016;-83
2023/07/14 01:48:58;;;;;;;5.18;1.42;;;22.50;99.90;;;;;;6194177;22;20077;-84
2023/07/14 02:12:46;;;;;;;4.25;2.45;;;22.20;98.70;;;;;;6208729;22;20024;-81
2023/07/14 02:20:59;;;;;;;5.45;3.17;;;21.90;98.50;;;;;;6191514;23;20035;-80
2023/07/14 02:23:28;;;;;;;3.75;2.38;;;22.00;98.90;;;;;;6204149;22;20021;-80
2023/07/14 04:17:53;;;;;;;4.00;2.35;;;22.20;99.90;;;;;;6057021;23;20029;-85
2023/07/14 04:24:39;;;;;;;3.67;2.38;;;22.10;99.90;;;;;;6001742;23;20035;-83
2023/07/14 04:31:04;;;;;;;3.55;2.25;;;22.20;99.90;;;;;;5996116;23;20016;-80
2023/07/14 04:33:32;;;;;;;5.20;2.40;;;22.40;99.90;;;;;;5930647;23;20018;-83
2023/07/14 04:36:31;;;;;;;4.20;2.10;;;22.40;99.90;;;;;;5911538;23;20012;-82
2023/07/14 04:39:49;;;;;;;4.97;2.95;;;22.40;99.90;;;;;;6040687;23;20030;-81
2023/07/14 04:42:16;;;;;;;4.55;2.83;;;22.00;99.90;;;;;;6154200;23;20020;-81
2023/07/14 04:49:14;;;;;;;;;;;;;;;;;;;;;
2023/07/14 05:50:20;;;;;;;4.25;2.30;;;24.50;91.40;;;;;;5865275;23;20066;-83
2023/07/14 05:52:47;;;;;;;2.22;1.50;;;24.40;90.50;;;;;;6213493;23;20017;-82
2023/07/14 05:55:17;;;;;;;3.50;1.75;;;24.50;90.00;;;;;;6238850;23;20016;-84
2023/07/14 05:57:45;;;;;;;3.97;2.00;;;24.70;90.20;;;;;;6187642;23;20013;-83
2023/07/14 06:00:16;;;;;;;4.75;2.00;;;24.80;90.10;;;;;;6237661;23;20024;-84
2023/07/14 06:02:46;;;;;;;4.55;2.40;;;24.90;89.50;;;;;;6188668;23;20017;-83
2023/07/14 06:05:14;;;;;;;2.42;1.50;;;24.70;88.40;;;;;;6212594;23;20112;-83
2023/07/14 06:07:44;;;;;;;2.38;1.77;;;24.80;87.30;;;;;;6214188;23;20016;-82
2023/07/14 06:10:12;;;;;;;2.63;1.65;;;24.90;86.00;;;;;;6240760;23;20024;-83
2023/07/14 06:12:39;;;;;;;2.55;1.45;;;25.00;86.10;;;;;;6213902;23;20096;-84
2023/07/14 06:15:07;;;;;;;2.33;1.80;;;25.10;85.90;;;;;;6213548;23;20028;-82
2023/07/14 06:17:35;;;;;;;4.88;2.10;;;25.20;86.00;;;;;;6212653;23;20032;-84
2023/07/14 06:20:03;;;;;;;2.42;1.60;;;25.30;85.30;;;;;;6237735;23;20340;-82
2023/07/14 06:22:30;;;;;;;2.35;1.20;;;25.50;85.10;;;;;;6213318;23;20029;-84
2023/07/14 06:24:57;;;;;;;2.30;1.45;;;25.60;83.40;;;;;;6237550;23;20765;-83
2023/07/14 06:27:25;;;;;;;2.15;1.58;;;25.60;82.60;;;;;;6213667;23;20668;-84
2023/07/14 06:29:52;;;;;;;2.95;1.52;;;25.60;83.00;;;;;;6212521;23;20100;-83
2023/07/14 06:32:19;;;;;;;3.65;1.58;;;25.70;83.40;;;;;;6214256;23;20017;-83
2023/07/14 06:34:47;;;;;;;2.67;1.65;;;26.00;84.70;;;;;;6237234;23;20029;-82
2023/07/14 06:37:14;;;;;;;3.25;1.80;;;26.10;83.70;;;;;;6186805;23;20032;-80
2023/07/14 06:39:42;;;;;;;2.72;1.58;;;26.10;83.50;;;;;;6238238;23;20052;-80
2023/07/14 06:42:09;;;;;;;3.67;1.60;;;26.20;83.30;;;;;;6186381;23;20071;-81
2023/07/14 06:44:36;;;;;;;2.83;1.70;;;26.30;83.20;;;;;;6214561;23;20871;-83
2023/07/14 06:47:04;;;;;;;2.30;1.27;;;26.30;82.50;;;;;;6209213;23;20052;-82
2023/07/14 06:49:31;;;;;;;3.00;1.58;;;26.40;81.80;;;;;;6237375;23;20439;-81
2023/07/14 06:51:59;;;;;;;2.78;1.77;;;26.60;81.80;;;;;;6212242;23;20017;-82
2023/07/14 06:54:26;;;;;;;2.75;1.40;;;26.60;81.20;;;;;;6234635;23;20028;-81
2023/07/14 06:56:56;;;;;;;2.33;1.65;;;26.70;80.50;;;;;;6212366;23;20025;-81
2023/07/14 06:59:25;;;;;;;3.40;1.60;;;26.70;78.70;;;;;;6237912;23;20071;-83
2023/07/14 07:01:52;;;;;;;4.30;1.55;;;26.80;79.60;;;;;;6235688;23;20021;-81
2023/07/14 07:04:19;;;;;;;2.85;1.25;;;26.80;79.90;;;;;;6211281;23;20044;-82
2023/07/14 07:06:46;;;;;;;4.03;1.45;;;26.90;78.70;;;;;;6236170;23;20044;-82
2023/07/14 07:09:13;;;;;;;1.92;1.58;;;26.90;77.70;;;;;;6203296;23;20051;-82
2023/07/14 07:11:40;;;;;;;2.20;1.70;;;27.00;78.10;;;;;;6228382;23;20020;-81
2023/07/14 07:14:08;;;;;;;2.35;1.40;;;27.10;79.20;;;;;;6196740;23;20071;-81
2023/07/14 07:16:36;;;;;;;3.72;1.30;;;27.30;79.50;;;;;;6225659;23;20024;-79
2023/07/14 07:19:03;;;;;;;2.95;1.02;;;27.40;78.40;;;;;;6202184;23;20020;-79
2023/07/14 07:21:30;;;;;;;1.75;1.17;;;27.30;76.00;;;;;;6224582;23;20024;-82
2023/07/14 07:23:57;;;;;;;2.42;1.08;;;27.20;75.90;;;;;;6225403;23;20028;-82
2023/07/14 07:26:24;;;;;;;2.47;1.60;;;27.40;77.30;;;;;;6202014;23;20021;-81
2023/07/14 07:28:52;;;;;;;2.78;1.23;;;27.40;76.30;;;;;;6229863;23;20036;-82
2023/07/14 07:31:21;;;;;;;1.70;1.08;;;27.40;75.30;;;;;;6199903;23;20055;-82
2023/07/14 07:33:48;;;;;;;2.22;1.13;;;27.30;75.70;;;;;;6205978;23;20095;-82
2023/07/14 07:36:16;;;;;;;3.78;1.20;;;27.20;75.40;;;;;;6226258;23;20099;-81
2023/07/14 07:38:46;;;;;;;2.83;1.50;;;27.40;77.00;;;;;;6202089;23;20051;-81
2023/07/14 07:41:25;;;;;;;2.25;1.48;;;27.50;76.90;;;;;;6227785;23;20017;-82
2023/07/14 07:43:52;;;;;;;1.52;1.33;;;27.60;75.70;;;;;;6200823;23;20413;-82
2023/07/14 07:46:23;;;;;;;3.30;1.63;;;27.60;73.50;;;;;;6227001;23;20025;-81
2023/07/14 07:48:50;;;;;;;2.55;1.50;;;27.60;74.70;;;;;;6227110;23;20306;-81
2023/07/14 07:51:17;;;;;;;2.05;1.35;;;27.60;74.20;;;;;;6203830;23;20020;-82
2023/07/14 07:53:44;;;;;;;2.97;1.75;;;27.60;74.90;;;;;;6205846;23;20024;-81
2023/07/14 07:56:12;;;;;;;1.70;1.40;;;27.50;75.70;;;;;;6200657;23;20769;-80
2023/07/14 07:58:39;;;;;;;2.45;1.73;;;27.60;76.80;;;;;;6202050;23;20017;-80
2023/07/14 08:01:09;;;;;;;3.42;2.60;;;27.70;77.60;;;;;;6177349;23;20017;-81
2023/07/14 08:03:37;;;;;;;2.67;1.75;;;27.60;76.50;;;;;;6204274;23;20079;-81
2023/07/14 08:06:05;;;;;;;2.28;1.80;;;27.60;79.70;;;;;;6225859;23;20131;-79
2023/07/14 08:08:33;;;;;;;3.53;2.10;;;27.90;78.80;;;;;;6227020;23;20020;-79
2023/07/14 08:11:01;;;;;;;2.35;1.77;;;27.90;76.80;;;;;;6201343;23;20020;-77
2023/07/14 08:13:29;;;;;;;1.45;1.00;;;27.90;77.30;;;;;;6203461;23;20009;-79
2023/07/14 08:15:57;;;;;;;2.17;1.88;;;27.90;75.60;;;;;;6229065;23;20035;-78
2023/07/14 08:18:25;;;;;;;2.45;1.40;;;28.00;75.40;;;;;;6174412;23;20024;-80
2023/07/14 08:20:53;;;;;;;2.33;1.23;;;27.80;74.70;;;;;;6203121;23;20059;-79
2023/07/14 08:23:21;;;;;;;1.60;1.20;;;27.80;74.70;;;;;;6201252;23;20024;-79
2023/07/14 08:26:00;;;;;;;1.70;1.10;;;27.90;71.80;;;;;;6227072;23;20051;-80
2023/07/14 08:28:28;;;;;;;1.90;1.20;;;28.00;73.30;;;;;;6226023;23;20029;-80
2023/07/14 08:30:59;;;;;;;3.38;1.10;;;28.20;73.90;;;;;;6202606;23;20108;-80
2023/07/14 08:33:27;;;;;;;2.92;1.30;;;28.20;72.60;;;;;;6201472;23;20487;-78
2023/07/14 08:36:00;;;;;;;2.83;1.30;;;28.30;73.50;;;;;;6175369;23;20724;-80
2023/07/14 08:38:28;;;;;;;2.65;1.70;;;28.30;73.70;;;;;;6201345;23;20024;-79
2023/07/14 08:41:30;;;;;;;3.15;1.50;;;28.30;74.60;;;;;;6200147;23;20024;-80
2023/07/14 08:44:43;;;;;;;1.70;1.25;;;28.30;74.10;;;;;;6200397;23;20144;-79
2023/07/14 08:47:22;;;;;;;;;;;28.40;75.30;;;;;;6183085;23;20429;-80
2023/07/14 08:50:00;;;;;;;3.15;1.20;;;28.20;74.30;;;;;;6227040;23;19920;-80
2023/07/14 08:52:34;;;;;;;3.15;1.40;;;28.40;76.00;;;;;;6225631;23;20033;-80
2023/07/14 08:55:16;;;;;;;2.15;1.38;;;28.30;74.20;;;;;;6152677;23;20543;-78
2023/07/14 08:57:57;;;;;;;1.55;1.00;;;28.30;76.20;;;;;;6228983;23;20021;-79
2023/07/14 09:00:33;;;;;;;2.08;0.93;;;28.30;74.60;;;;;;6199768;23;20028;-78
2023/07/14 09:03:11;;;;;;;1.42;1.08;;;28.20;73.90;;;;;;6201356;23;20048;-79
2023/07/14 09:05:46;;;;;;;1.98;1.00;;;28.10;74.00;;;;;;6202617;23;20024;-79
2023/07/14 09:08:13;;;;;;;1.42;0.85;;;28.30;74.40;;;;;;6204642;23;20012;-80
2023/07/14 09:11:09;;;;;;;1.45;0.88;;;28.40;75.10;;;;;;6202333;23;20024;-79
2023/07/14 09:13:58;;;;;;;3.30;0.80;;;28.40;73.70;;;;;;6202912;23;20040;-78
2023/07/14 09:16:29;;;;;;;1.45;0.88;;;28.30;73.20;;;;;;6200595;23;20028;-78
2023/07/14 09:19:02;;;;;;;3.23;1.40;;;28.40;74.00;;;;;;6224764;23;20084;-77
2023/07/14 09:21:39;;;;;;;1.23;0.77;;;28.30;73.90;;;;;;6224638;23;20031;-78
2023/07/14 09:24:31;;;;;;;1.80;1.08;;;28.10;73.20;;;;;;6199435;23;20124;-79
2023/07/14 09:26:58;;;;;;;2.75;1.00;;;28.20;73.60;;;;;;6199292;23;20465;-78
2023/07/14 09:29:41;;;;;;;1.33;1.05;;;28.10;72.90;;;;;;6227369;23;20016;-78
2023/07/14 09:32:32;;;;;;;1.40;0.90;;;28.20;73.20;;;;;;6175561;23;20031;-79
2023/07/14 09:35:07;;;;;;;1.77;1.00;;;28.10;72.90;;;;;;6201061;23;20402;-78
2023/07/14 09:37:46;;;;;;;1.55;0.90;;;27.90;73.70;;;;;;6177648;23;20391;-79
2023/07/14 09:40:18;;;;;;;1.60;0.90;;;27.70;74.00;;;;;;6227010;23;20051;-77
2023/07/14 09:42:53;;;;;;;1.38;0.88;;;27.50;74.40;;;;;;6199439;23;20457;-79
2023/07/14 09:45:28;;;;;;;2.45;1.00;;;27.80;75.10;;;;;;6225378;23;20504;-78
2023/07/14 09:48:13;;;;;;;3.85;1.20;;;28.00;73.90;;;;;;6175619;23;20055;-80
2023/07/14 09:51:09;;;;;;;1.77;1.15;;;27.80;74.10;;;;;;6176649;23;20048;-79
2023/07/14 09:53:39;;;;;;;2.28;1.00;;;27.80;74.30;;;;;;6175471;23;20515;-80
2023/07/14 09:56:12;;;;;;;1.65;0.82;;;28.10;73.80;;;;;;6203760;23;20541;-79
2023/07/14 09:58:52;;;;;;;2.22;1.45;;;28.20;73.70;;;;;;6200414;23;20025;-78
2023/07/14 10:01:19;;;;;;;1.90;0.90;;;28.30;74.40;;;;;;6175807;23;20067;-78
2023/07/14 10:03:51;;;;;;;0.98;0.80;;;28.30;74.40;;;;;;6175180;23;20108;-77
2023/07/14 10:06:27;;;;;;;2.17;0.70;;;28.30;73.00;;;;;;6174829;23;20111;-79
2023/07/14 10:09:04;;;;;;;1.77;1.05;;;28.40;73.80;;;;;;6229187;23;20024;-78
2023/07/14 10:11:42;;;;;;;2.05;1.00;;;28.40;72.70;;;;;;6178480;23;20086;-81
2023/07/14 10:14:27;;;;;;;2.03;1.10;;;28.30;72.00;;;;;;6200235;23;20515;-80
2023/07/14 10:16:57;;;;;;;1.58;1.08;;;28.30;72.80;;;;;;6173913;23;20075;-78
2023/07/14 10:19:43;;;;;;;1.75;0.93;;;28.40;73.10;;;;;;6225569;23;20446;-79
2023/07/14 10:22:14;;;;;;;1.35;0.88;;;28.40;71.90;;;;;;6228167;23;20388;-77
2023/07/14 10:24:45;;;;;;;1.52;0.77;;;28.40;71.50;;;;;;6174180;23;20040;-77
2023/07/14 10:27:23;;;;;;;2.28;0.68;;;28.40;71.30;;;;;;6219032;23;20063;-78
2023/07/14 10:30:16;;;;;;;1.15;0.70;;;28.50;72.00;;;;;;6202845;23;20021;-77
2023/07/14 10:32:55;;;;;;;3.13;1.33;;;28.40;71.60;;;;;;6225546;23;20164;-78
2023/07/14 10:35:29;;;;;;;1.88;1.15;;;28.30;72.00;;;;;;6200472;23;20028;-78
2023/07/14 10:38:04;;;;;;;1.48;0.80;;;28.40;71.60;;;;;;6224011;23;20052;-78
2023/07/14 10:40:38;;;;;;;2.00;0.98;;;28.30;70.50;;;;;;6200670;23;20031;-78
2023/07/14 10:43:17;;;;;;;1.88;0.80;;;28.40;73.10;;;;;;6202984;23;20031;-78
2023/07/14 10:45:49;;;;;;;1.55;0.80;;;28.50;72.10;;;;;;6199229;23;20017;-77
2023/07/14 10:48:28;;;;;;;1.50;0.88;;;28.50;72.20;;;;;;6222084;23;20540;-78
2023/07/14 10:51:38;;;;;;;4.45;0.80;;;28.50;72.00;;;;;;6223539;23;20031;-78
2023/07/14 10:54:14;;;;;;;2.70;0.95;;;28.50;72.30;;;;;;6156651;23;20449;-77
2023/07/14 10:56:47;;;;;;;1.58;0.88;;;28.50;70.20;;;;;;6175645;23;20070;-78
2023/07/14 10:59:26;;;;;;;1.20;0.85;;;28.30;69.20;;;;;;6202400;23;20020;-78
2023/07/14 11:02:19;;;;;;;1.05;0.73;;;28.30;70.30;;;;;;6200234;23;20390;-78
2023/07/14 11:04:54;;;;;;;3.50;1.33;;;28.30;68.30;;;;;;6174449;23;20029;-78
2023/07/14 11:07:30;;;;;;;0.90;0.60;;;28.40;70.50;;;;;;6198908;23;20519;-78
2023/07/14 11:09:58;;;;;;;2.28;0.80;;;28.60;69.70;;;;;;6197882;23;20737;-77
2023/07/14 11:12:35;;;;;;;1.27;0.57;;;28.50;67.80;;;;;;6201258;23;20567;-77
2023/07/14 11:15:17;;;;;;;1.42;0.80;;;28.60;69.10;;;;;;6199955;23;20074;-78
2023/07/14 11:18:03;;;;;;;1.85;0.90;;;28.50;68.60;;;;;;6200316;23;20017;-78
2023/07/14 11:21:00;;;;;;;2.35;0.60;;;28.60;69.80;;;;;;6200736;23;20025;-79
2023/07/14 11:23:35;;;;;;;1.45;0.85;;;28.30;67.10;;;;;;6157849;23;20059;-78
2023/07/14 11:26:18;;;;;;;1.65;1.00;;;28.40;69.20;;;;;;6199948;23;20098;-77
2023/07/14 11:28:53;;;;;;;1.88;0.68;;;28.50;70.00;;;;;;6199752;23;20107;-79
2023/07/14 11:31:44;;;;;;;1.17;0.73;;;28.50;68.30;;;;;;6199444;23;20027;-79
2023/07/14 11:34:22;;;;;;;1.20;0.63;;;28.70;69.40;;;;;;6199600;23;20344;-79
2023/07/14 11:36:53;;;;;;;2.90;0.85;;;28.40;68.20;;;;;;6200820;23;20349;-78
2023/07/14 11:39:40;;;;;;;1.95;0.90;;;28.50;69.80;;;;;;6201150;23;20559;-78
2023/07/14 11:42:21;;;;;;;1.27;0.80;;;28.80;71.40;;;;;;6226735;23;20743;-77
2023/07/14 11:44:50;;;;;;;1.50;1.00;;;28.90;71.00;;;;;;6201822;23;20024;-77
2023/07/14 11:47:23;;;;;;;1.00;0.70;;;29.00;71.10;;;;;;6224412;23;20452;-77
2023/07/14 11:49:52;;;;;;;2.95;0.90;;;29.00;70.60;;;;;;6225459;23;20091;-79
2023/07/14 11:52:23;;;;;;;2.25;0.90;;;29.00;69.30;;;;;;6223632;23;20025;-79
2023/07/14 11:55:06;;;;;;;1.02;0.90;;;29.00;69.40;;;;;;6177114;23;20020;-79
2023/07/14 11:57:49;;;;;;;3.95;1.20;;;29.10;69.00;;;;;;6228782;23;20070;-79
2023/07/14 12:00:26;;;;;;;4.47;1.10;;;29.10;68.50;;;;;;6226434;23;20023;-78
2023/07/14 12:03:02;;;;;;;1.55;0.85;;;29.00;68.60;;;;;;6199739;23;20468;-78
2023/07/14 12:05:36;;;;;;;1.83;1.15;;;29.10;69.00;;;;;;6202291;23;20032;-76
2023/07/14 12:08:07;;;;;;;2.33;1.00;;;29.30;69.20;;;;;;6224381;23;20021;-79
2023/07/14 12:10:43;;;;;;;2.97;0.87;;;29.20;66.70;;;;;;6199786;23;20511;-80
2023/07/14 12:13:26;;;;;;;1.30;0.70;;;29.30;67.50;;;;;;6199528;23;20035;-79
2023/07/14 12:15:56;;;;;;;2.70;1.30;;;29.30;67.10;;;;;;6198146;23;20031;-78
2023/07/14 12:18:57;;;;;;;1.50;0.93;;;28.80;68.00;;;;;;6198019;23;20024;-78
2023/07/14 12:21:34;;;;;;;1.95;1.00;;;28.80;67.40;;;;;;6163208;23;20543;-79
2023/07/14 12:24:11;;;;;;;1.27;1.00;;;28.50;67.00;;;;;;6225830;23;20028;-78
2023/07/14 12:26:58;;;;;;;1.80;0.90;;;28.30;69.20;;;;;;6202173;23;20406;-77
2023/07/14 12:29:25;;;;;;;2.22;0.90;;;28.20;69.40;;;;;;6166292;23;20411;-80
2023/07/14 12:31:55;;;;;;;2.63;1.10;;;28.40;70.20;;;;;;6201701;23;20024;-79
2023/07/14 12:34:27;;;;;;;1.08;0.70;;;28.60;67.90;;;;;;6226072;23;20547;-79
2023/07/14 12:36:54;;;;;;;0.90;0.73;;;28.80;67.80;;;;;;6225223;23;20182;-79
2023/07/14 12:39:21;;;;;;;1.00;0.77;;;28.80;67.00;;;;;;6224622;23;20028;-78
2023/07/14 12:41:53;;;;;;;1.45;0.80;;;28.80;66.80;;;;;;6226825;23;20033;-79
2023/07/14 12:44:33;;;;;;;1.95;0.82;;;28.80;67.50;;;;;;6225733;23;20017;-79
2023/07/14 12:47:00;;;;;;;3.33;1.20;;;28.60;68.30;;;;;;6199836;23;20102;-79
2023/07/14 12:49:37;;;;;;;1.52;0.70;;;28.30;67.60;;;;;;6198698;23;20127;-79
2023/07/14 12:52:19;;;;;;;1.20;0.90;;;28.40;69.40;;;;;;6227879;23;20628;-78
2023/07/14 12:54:47;;;;;;;1.10;0.80;;;28.70;70.30;;;;;;6199922;23;20068;-78
2023/07/14 12:57:16;;;;;;;1.23;0.80;;;28.90;69.20;;;;;;6176027;23;20102;-78
2023/07/14 12:59:51;;;;;;;2.08;1.10;;;28.80;67.80;;;;;;6199412;23;20082;-79
2023/07/14 13:02:18;;;;;;;1.50;0.80;;;28.90;68.30;;;;;;6226351;23;20074;-78
2023/07/14 13:04:46;;;;;;;1.40;0.77;;;29.00;68.30;;;;;;6227885;23;20023;-78
2023/07/14 13:07:23;;;;;;;2.13;1.33;;;29.10;67.60;;;;;;6225695;23;20031;-78
2023/07/14 13:09:59;;;;;;;1.58;0.90;;;29.20;66.60;;;;;;6201474;23;20016;-77
2023/07/14 13:12:27;;;;;;;2.22;1.38;;;29.10;66.10;;;;;;6201424;23;20067;-76
2023/07/14 13:14:56;;;;;;;1.65;0.88;;;29.30;65.50;;;;;;6225517;23;20020;-79
2023/07/14 13:17:26;;;;;;;1.95;0.90;;;29.40;65.60;;;;;;6200785;23;20520;-79
2023/07/14 13:19:54;;;;;;;1.77;1.20;;;29.50;66.00;;;;;;6226860;23;20115;-83
2023/07/14 13:22:25;;;;;;;2.15;0.88;;;29.60;65.20;;;;;;6225422;23;20131;-78
2023/07/14 13:24:56;;;;;;;2.85;1.40;;;29.50;65.00;;;;;;6201826;23;20048;-80
2023/07/14 13:27:25;;;;;;;1.98;0.60;;;29.60;64.20;;;;;;6205731;23;20108;-80
2023/07/14 13:30:01;;;;;;;2.85;0.80;;;29.60;63.00;;;;;;6225433;23;20025;-79
2023/07/14 13:32:29;;;;;;;2.58;0.80;;;29.70;61.90;;;;;;6153549;23;20136;-80
2023/07/14 13:34:59;;;;;;;2.03;0.90;;;29.70;62.10;;;;;;6202879;23;20017;-78
2023/07/14 13:37:28;;;;;;;1.98;0.88;;;29.80;61.80;;;;;;6227601;23;20082;-79
2023/07/14 13:40:01;;;;;;;0.95;0.60;;;29.80;61.20;;;;;;6202933;23;20456;-80
2023/07/14 13:42:34;;;;;;;1.83;0.90;;;29.80;62.00;;;;;;6230083;23;20044;-79
2023/07/14 13:45:07;;;;;;;1.52;1.00;;;29.80;60.40;;;;;;6204632;23;20095;-79
2023/07/14 13:47:45;;;;;;;0.95;0.50;;;29.80;60.70;;;;;;6227768;23;20044;-79
2023/07/14 13:50:12;;;;;;;2.40;0.70;;;29.70;62.20;;;;;;6200532;23;20036;-78
2023/07/14 13:52:41;;;;;;;1.73;0.73;;;29.60;61.60;;;;;;6222796;23;20020;-78
2023/07/14 13:55:28;;;;;;;1.45;0.88;;;29.70;62.30;;;;;;6225677;23;20024;-78
2023/07/14 13:57:55;;;;;;;1.55;1.10;;;29.70;62.30;;;;;;6188237;23;20029;-80
2023/07/14 14:00:24;;;;;;;1.67;0.60;;;29.70;60.50;;;;;;6224753;23;20056;-78
2023/07/14 14:03:00;;;;;;;1.40;0.80;;;29.70;61.00;;;;;;6175067;23;20055;-78
2023/07/14 14:05:33;;;;;;;1.40;0.77;;;29.60;60.40;;;;;;6229370;23;20486;-78
2023/07/14 14:08:00;;;;;;;1.45;0.77;;;29.60;60.10;;;;;;6226705;23;20020;-78
2023/07/14 14:10:28;;;;;;;4.15;1.00;;;29.60;60.70;;;;;;6201562;23;20021;-80
2023/07/14 14:12:56;;;;;;;1.52;0.77;;;29.50;61.20;;;;;;6199190;23;20274;-78
2023/07/14 14:15:30;;;;;;;2.00;0.80;;;29.40;61.20;;;;;;6226085;23;20020;-79
2023/07/14 14:18:15;;;;;;;1.35;0.70;;;29.40;62.40;;;;;;6176289;23;20020;-78
2023/07/14 14:20:43;;;;;;;3.83;1.25;;;29.50;62.50;;;;;;6201131;23;20016;-79
2023/07/14 14:23:15;;;;;;;1.80;0.80;;;29.60;62.80;;;;;;6202494;23;20426;-80
2023/07/14 14:25:43;;;;;;;2.92;1.15;;;29.60;61.60;;;;;;6199813;23;20020;-81
2023/07/14 14:28:11;;;;;;;4.88;0.70;;;29.50;61.30;;;;;;6178637;23;20215;-79
2023/07/14 14:30:44;;;;;;;2.13;1.08;;;29.50;61.90;;;;;;6229563;23;20721;-80
2023/07/14 14:33:22;;;;;;;7.45;1.35;;;29.50;62.10;;;;;;6202554;23;20480;-79
2023/07/14 14:35:49;;;;;;;2.95;0.90;;;29.60;62.90;;;;;;6226037;23;20031;-79
2023/07/14 14:38:20;;;;;;;1.95;0.88;;;29.50;62.70;;;;;;6200919;23;20108;-80
2023/07/14 14:41:28;;;;;;;1.67;0.80;;;29.40;61.90;;;;;;6180134;23;20115;-78
2023/07/14 14:43:56;;;;;;;2.40;0.70;;;29.30;62.30;;;;;;6174836;23;20020;-80
2023/07/14 14:46:24;;;;;;;1.00;0.70;;;29.40;62.60;;;;;;6225000;23;20027;-80
2023/07/14 14:48:52;;;;;;;2.25;0.98;;;29.50;62.40;;;;;;6201472;23;20024;-79
2023/07/14 14:51:20;;;;;;;2.30;0.70;;;29.50;63.60;;;;;;6225932;23;20024;-79
2023/07/14 14:53:47;;;;;;;1.50;0.90;;;29.60;62.20;;;;;;6229762;23;20051;-81
2023/07/14 14:56:37;;;;;;;1.20;0.90;;;29.50;62.10;;;;;;6201448;23;20111;-80
2023/07/14 14:59:17;;;;;;;2.63;0.73;;;29.40;61.80;;;;;;6202312;23;20024;-79
2023/07/14 15:01:45;;;;;;;1.30;0.85;;;29.30;61.10;;;;;;6200706;23;20028;-79
2023/07/14 15:04:21;;;;;;;1.67;0.93;;;29.30;62.20;;;;;;6200125;23;20448;-79
2023/07/14 15:06:49;;;;;;;3.17;0.70;;;29.30;63.10;;;;;;6199257;23;20025;-78
2023/07/14 15:09:17;;;;;;;1.92;0.52;;;29.30;61.30;;;;;;6201677;23;20012;-76
2023/07/14 15:11:47;;;;;;;1.45;0.93;;;29.30;61.30;;;;;;6200298;23;20025;-78
2023/07/14 15:14:36;;;;;;;2.80;1.00;;;29.30;62.30;;;;;;6199260;23;20055;-79
2023/07/14 15:17:33;;;;;;;2.95;1.00;;;29.30;62.40;;;;;;6200390;23;20465;-80
2023/07/14 15:20:01;;;;;;;4.28;1.15;;;29.30;63.30;;;;;;6200456;23;20028;-76
2023/07/14 15:22:28;;;;;;;5.07;1.17;;;29.30;63.10;;;;;;6201845;23;20684;-78
2023/07/14 15:24:55;;;;;;;3.03;1.20;;;29.20;62.90;;;;;;6200267;23;20379;-80
2023/07/14 15:27:30;;;;;;;1.83;0.80;;;29.00;63.00;;;;;;6200920;23;20016;-79
2023/07/14 15:30:07;;;;;;;1.63;0.80;;;28.90;64.00;;;;;;6201734;23;20730;-78
2023/07/14 15:32:34;;;;;;;1.55;0.80;;;28.90;63.50;;;;;;6175365;23;20025;-78
2023/07/14 15:35:25;;;;;;;2.20;1.17;;;29.00;64.50;;;;;;6228346;23;20028;-80
2023/07/14 15:37:54;;;;;;;1.88;1.05;;;28.90;65.00;;;;;;6206100;23;20079;-80
2023/07/14 15:40:28;;;;;;;1.95;0.80;;;28.90;65.50;;;;;;6226202;23;20031;-81
2023/07/14 15:42:55;;;;;;;1.45;1.08;;;28.80;65.30;;;;;;6199601;23;20508;-81
2023/07/14 15:45:25;;;;;;;1.63;1.10;;;28.70;65.60;;;;;;6223406;23;20024;-80
2023/07/14 15:47:54;;;;;;;1.80;0.90;;;28.60;65.10;;;;;;6202491;23;20606;-80
2023/07/14 15:50:28;;;;;;;3.10;0.80;;;28.60;65.10;;;;;;6224904;23;20024;-80
2023/07/14 15:52:57;;;;;;;0.77;0.63;;;28.50;65.90;;;;;;6201561;23;20086;-79
2023/07/14 15:55:30;;;;;;;1.52;0.82;;;28.50;64.70;;;;;;6225092;23;20103;-80
2023/07/14 15:57:57;;;;;;;1.60;0.70;;;28.60;64.60;;;;;;6200868;23;20460;-80
2023/07/14 16:00:25;;;;;;;3.47;1.13;;;28.60;66.10;;;;;;6225035;23;20146;-80
2023/07/14 16:02:52;;;;;;;3.42;1.13;;;28.50;65.00;;;;;;6199669;23;20025;-82
2023/07/14 16:05:21;;;;;;;2.08;0.80;;;28.50;65.20;;;;;;6230207;23;20292;-79
2023/07/14 16:07:53;;;;;;;1.23;0.70;;;28.40;65.10;;;;;;6225604;23;20016;-80
2023/07/14 16:10:20;;;;;;;2.60;0.70;;;28.30;64.10;;;;;;6224211;23;20027;-79
2023/07/14 16:12:48;;;;;;;1.27;0.75;;;28.30;64.50;;;;;;6201337;23;20016;-79
2023/07/14 16:15:17;;;;;;;2.95;0.93;;;28.30;64.30;;;;;;6201189;23;20100;-80
2023/07/14 16:17:44;;;;;;;1.92;0.82;;;28.30;64.90;;;;;;6226518;23;20032;-80
2023/07/14 16:20:14;;;;;;;1.65;0.80;;;28.30;64.60;;;;;;6205594;23;20024;-80
2023/07/14 16:22:47;;;;;;;1.55;0.70;;;28.30;65.00;;;;;;6205974;23;20449;-80
2023/07/14 16:25:17;;;;;;;1.30;0.68;;;28.30;65.80;;;;;;6204219;23;20096;-80
2023/07/14 16:27:44;;;;;;;1.33;0.98;;;28.30;65.90;;;;;;6231128;23;20456;-81
2023/07/14 16:30:16;;;;;;;1.58;0.80;;;28.30;66.90;;;;;;6183098;23;20091;-78
2023/07/14 16:32:47;;;;;;;1.20;0.88;;;28.20;66.40;;;;;;6228216;23;20079;-80
2023/07/14 16:35:23;;;;;;;2.90;0.73;;;28.20;65.20;;;;;;6204628;23;20021;-80
2023/07/14 16:37:53;;;;;;;1.42;0.80;;;28.10;64.40;;;;;;6227007;23;20033;-79
2023/07/14 16:40:27;;;;;;;2.40;0.93;;;28.10;63.70;;;;;;6202858;23;20094;-81
2023/07/14 16:42:58;;;;;;;3.13;1.25;;;28.20;64.30;;;;;;6225560;23;20028;-80
2023/07/14 16:45:32;;;;;;;2.22;1.15;;;28.10;66.00;;;;;;6200620;23;20028;-80
2023/07/14 16:48:00;;;;;;;3.25;1.48;;;27.90;66.20;;;;;;6226458;23;20021;-79
2023/07/14 16:50:28;;;;;;;2.47;1.00;;;27.80;65.70;;;;;;6224524;23;20055;-79
2023/07/14 16:52:55;;;;;;;2.78;1.00;;;27.80;66.60;;;;;;6222510;23;20035;-79
2023/07/14 16:55:28;;;;;;;2.33;1.05;;;27.80;66.40;;;;;;6197642;23;20017;-80
2023/07/14 16:57:57;;;;;;;2.00;0.68;;;27.70;67.80;;;;;;6200268;23;20727;-79
2023/07/14 17:00:26;;;;;;;2.25;0.93;;;27.60;68.20;;;;;;6173724;23;20107;-80
2023/07/14 17:02:59;;;;;;;2.63;0.90;;;27.60;67.00;;;;;;6224912;23;20029;-80
2023/07/14 17:05:29;;;;;;;1.70;0.82;;;27.60;67.70;;;;;;6174566;23;20118;-80
2023/07/14 17:07:57;;;;;;;2.15;1.00;;;27.70;67.10;;;;;;6202639;23;20040;-81
2023/07/14 17:10:31;;;;;;;4.10;1.48;;;27.70;66.60;;;;;;6177712;23;20024;-80
2023/07/14 17:12:59;;;;;;;1.80;1.15;;;27.70;66.80;;;;;;6203545;23;20020;-81